Beverly Shores, Indiana
Current Conditions -  °F | °C
As of 9:15 AM on Wednesday 22 Oct 2014 (Local Time) from KMGC Reporting Station
Clear Clear  
Wind Chill: 43°   Ceiling: Unl
Heat Index: 43°   Visibility: 10mi
Dew Point: 37°   Wind: 3mph
Humidity: 81%   Direction: 80°E
Pressure: 30.37"   Gusts: NA
Location:  41.69°N, 86.98°W
Report Text: KMGC 221415Z AUTO 08003KT 10SM CLR 06/03 A3037 RMK AO2
Loading
Personal Weather Stations






























Interactive Weather Map
Tropical Storm Tracking
New forecast layout! Learn more

10-Day Weather Forecast

Advertisements
Track Severe Weather on mobile